Hauptseite
METAR-TAF:

METAR-TAF

Flughäfen :

Norwich, England

Norwich International Airport

Breite: 52-38N, Länge: 001-18E, Höhe: 14 m

Beobachtung

Neuester Wetterbericht von vor 30 Minuten, um 05:20 UTC
Wind 11 kt aus West/Südwest
Temperatur 6°C
Luftfeuchtigkeit 93%
Luftdruck 1012 hPa
Sichtweite 10 km oder mehr
keine Wolken unter 1500 m und keine Kumulonimbus oder Gewitterwolken

METAR: EGSH 260520Z 25011KT CAVOK 06/05 Q1012 NOSIG

Zeit: 06:50 (05:50 UTC)

Prognose

Neuester Wetterbericht von vor 51 Minuten, um 04:59 UTC
Gültige Prognose vom 26 um 06 UTC bis 26 um 15 UTC
Wind 12 kt aus West
Sichtweite 10 km oder mehr
Aufgelockert bewölkt in der Höhe von 3000 ft
Wahrscheinlichkeit 30% :
Zeitweise
vom 26 um 06 UTC bis 26 um 15 UTC
Wind 15 kt aus West, Böen bis zu 28 kt
Sichtweite: 7000 m
Regenschauer

TAF: EGSH 260459Z 2606/2615 26012KT 9999 SCT030 PROB30 TEMPO 2606/2615 26015G28KT 7000 SHRA

Wetterbeobachtungen und Prognosen von mehr als 4000 Flughäfen (METAR und TAF Bericht).

Die verfügbaren Stationen werden durch gelbe und rote Markierungen auf der Karte dargestellt.

Führen Sie die Maus auf sie, um den Namen der Station zu sehen.

Darauf klicken, um die Beobachtung von Wetterbeobachtungen und Prognosen zu sehen.

Um die Karte zu ändern : klicken Sie auf den grünen Tasten mit einem schwarzen Kreuz Zum Vergrößern, auf den grünen Button mit einem Gedankenstrich zu verkleinern, oder auf die grünen Pfeile für benachbarte Karten.


METAR-TAF: